Time;durP1;ratioP1;P1;durP2;ratioP2;P2;SDS_P1;SDS_P2;PMS_P1;PMS_P2;Temp;Humidity;BMP_temperature;BMP_pressure;BME280_temperature;BME280_humidity;BME280_pressure;Samples;Min_cycle;Max_cycle;Signal;HPM_P1;HPM_P2
2023/07/19 00:02:26;0.00;0.00;0.62;0.00;0.00;0.62;1.80;1.30;;;31.30;21.30;;;;;;2256800;61;20393;-65
2023/07/19 00:05:11;0.00;0.00;0.62;0.00;0.00;0.62;2.03;1.30;;;31.30;21.30;;;;;;2256387;61;20438;-65
2023/07/19 00:07:56;0.00;0.00;0.62;0.00;0.00;0.62;1.70;1.30;;;31.30;21.30;;;;;;2256162;61;20520;-65
2023/07/19 00:10:41;0.00;0.00;0.62;0.00;0.00;0.62;1.77;1.10;;;31.30;21.80;;;;;;2256483;61;20768;-65
2023/07/19 00:13:25;0.00;0.00;0.62;0.00;0.00;0.62;2.20;1.40;;;31.30;21.30;;;;;;2256094;61;20397;-65
2023/07/19 00:16:10;0.00;0.00;0.62;0.00;0.00;0.62;2.10;1.50;;;31.30;21.30;;;;;;2256350;61;20416;-65
2023/07/19 00:18:56;0.00;0.00;0.62;0.00;0.00;0.62;2.00;1.10;;;31.30;21.30;;;;;;2256239;61;20894;-65
2023/07/19 00:21:41;0.00;0.00;0.62;0.00;0.00;0.62;2.13;1.30;;;31.30;21.30;;;;;;2256049;61;20362;-65
2023/07/19 00:24:26;0.00;0.00;0.62;0.00;0.00;0.62;2.07;1.33;;;31.30;21.40;;;;;;2256357;61;20401;-65
2023/07/19 00:27:11;0.00;0.00;0.62;0.00;0.00;0.62;2.43;1.40;;;31.30;21.90;;;;;;2256219;61;20813;-66
2023/07/19 00:29:55;0.00;0.00;0.62;0.00;0.00;0.62;3.57;1.63;;;31.30;21.40;;;;;;2255894;61;20413;-64
2023/07/19 00:32:40;0.00;0.00;0.62;0.00;0.00;0.62;2.13;1.50;;;31.30;21.40;;;;;;2256403;61;20424;-65
2023/07/19 00:35:26;0.00;0.00;0.62;0.00;0.00;0.62;3.43;1.40;;;31.30;21.40;;;;;;2253231;61;20918;-65
2023/07/19 00:38:13;0.00;0.00;0.62;0.00;0.00;0.62;2.20;1.10;;;31.30;21.90;;;;;;2256303;61;20802;-65
2023/07/19 00:40:58;0.00;0.00;0.62;0.00;0.00;0.62;2.37;1.40;;;31.20;21.30;;;;;;2253274;61;20661;-65
2023/07/19 00:43:43;0.00;0.00;0.62;0.00;0.00;0.62;1.73;1.20;;;31.30;21.40;;;;;;2256064;61;20361;-65
2023/07/19 00:46:27;0.00;0.00;0.62;0.00;0.00;0.62;1.97;1.50;;;31.30;21.40;;;;;;2256211;61;20354;-65
2023/07/19 00:49:13;0.00;0.00;0.62;0.00;0.00;0.62;2.20;1.20;;;31.30;21.40;;;;;;2255890;61;20442;-65
2023/07/19 00:52:01;0.00;0.00;0.62;0.00;0.00;0.62;1.80;1.20;;;31.20;21.30;;;;;;2256253;61;20400;-65
2023/07/19 00:54:47;0.00;0.00;0.62;0.00;0.00;0.62;2.47;1.20;;;31.20;21.40;;;;;;2252899;61;20417;-65
2023/07/19 00:57:32;0.00;0.00;0.62;0.00;0.00;0.62;1.90;1.30;;;31.20;21.40;;;;;;2256103;61;20879;-65
2023/07/19 01:00:19;0.00;0.00;0.62;0.00;0.00;0.62;1.50;1.13;;;31.20;21.40;;;;;;2256186;61;20396;-64
2023/07/19 01:03:04;0.00;0.00;0.62;0.00;0.00;0.62;2.80;1.30;;;31.20;21.40;;;;;;2256526;61;20366;-64
2023/07/19 01:05:49;0.00;0.00;0.62;0.00;0.00;0.62;2.33;1.10;;;31.20;21.40;;;;;;2252799;61;20389;-65
2023/07/19 01:08:35;0.00;0.00;0.62;0.00;0.00;0.62;2.30;1.50;;;31.20;21.40;;;;;;2256113;61;20386;-65
2023/07/19 01:11:20;0.00;0.00;0.62;0.00;0.00;0.62;2.77;1.50;;;31.20;21.40;;;;;;2252977;61;20742;-65
2023/07/19 01:14:05;0.00;0.00;0.62;0.00;0.00;0.62;2.70;1.60;;;31.20;21.40;;;;;;2256403;61;20421;-65
2023/07/19 01:16:49;0.00;0.00;0.62;0.00;0.00;0.62;2.30;1.37;;;31.20;22.00;;;;;;2256173;61;20499;-64
2023/07/19 01:19:34;0.00;0.00;0.62;0.00;0.00;0.62;1.50;1.00;;;31.20;21.40;;;;;;2255998;61;20393;-65
2023/07/19 01:22:19;0.00;0.00;0.62;0.00;0.00;0.62;1.90;1.23;;;31.20;21.40;;;;;;2253054;61;20361;-64
2023/07/19 01:25:06;0.00;0.00;0.62;0.00;0.00;0.62;2.27;1.40;;;31.10;21.40;;;;;;2253086;61;20452;-64
2023/07/19 01:27:51;0.00;0.00;0.62;0.00;0.00;0.62;2.23;1.40;;;31.20;21.50;;;;;;2253484;61;20405;-64
2023/07/19 01:30:36;0.00;0.00;0.62;0.00;0.00;0.62;1.80;1.23;;;31.20;21.50;;;;;;2253726;61;20365;-65
2023/07/19 01:33:21;0.00;0.00;0.62;0.00;0.00;0.62;1.93;1.20;;;31.20;21.50;;;;;;2257215;61;20365;-64
2023/07/19 01:36:07;0.00;0.00;0.62;0.00;0.00;0.62;1.60;1.10;;;31.20;21.50;;;;;;2256981;61;20450;-64
2023/07/19 01:38:52;0.00;0.00;0.62;0.00;0.00;0.62;2.30;1.27;;;31.20;21.50;;;;;;2253814;61;20456;-65
2023/07/19 01:41:38;0.00;0.00;0.62;0.00;0.00;0.62;2.23;1.20;;;31.20;21.50;;;;;;2256896;61;20393;-64
2023/07/19 01:44:22;0.00;0.00;0.62;0.00;0.00;0.62;1.80;1.17;;;31.20;21.50;;;;;;2256869;61;20405;-65
2023/07/19 01:47:08;0.00;0.00;0.62;0.00;0.00;0.62;2.20;1.60;;;31.20;21.50;;;;;;2256813;61;20462;-65
2023/07/19 01:49:53;0.00;0.00;0.62;0.00;0.00;0.62;1.87;1.20;;;31.20;21.50;;;;;;2256477;61;21020;-64
2023/07/19 01:52:38;0.00;0.00;0.62;0.00;0.00;0.62;2.30;1.40;;;31.20;21.50;;;;;;2256844;61;20883;-64
2023/07/19 01:55:23;0.00;0.00;0.62;0.00;0.00;0.62;2.07;1.60;;;31.20;21.50;;;;;;2256848;61;20895;-64
2023/07/19 01:58:09;0.00;0.00;0.62;0.00;0.00;0.62;2.07;1.47;;;31.20;21.50;;;;;;2253276;61;20421;-65
2023/07/19 02:00:54;0.00;0.00;0.62;0.00;0.00;0.62;2.40;1.70;;;31.20;21.50;;;;;;2253690;61;20401;-65
2023/07/19 02:03:39;0.00;0.00;0.62;0.00;0.00;0.62;2.23;1.37;;;31.20;22.10;;;;;;2256529;61;20405;-64
2023/07/19 02:06:23;0.00;0.00;0.62;0.00;0.00;0.62;2.60;1.33;;;31.20;21.50;;;;;;2256864;61;20926;-65
2023/07/19 02:09:08;0.00;0.00;0.62;0.00;0.00;0.62;2.93;1.40;;;31.20;21.50;;;;;;2253467;61;20365;-65
2023/07/19 02:11:52;0.00;0.00;0.62;0.00;0.00;0.62;1.70;1.10;;;31.20;21.50;;;;;;2253308;61;20421;-65
2023/07/19 02:14:39;0.00;0.00;0.62;0.00;0.00;0.62;2.10;1.50;;;31.20;21.50;;;;;;2253656;61;20941;-65
2023/07/19 02:17:24;0.00;0.00;0.62;0.00;0.00;0.62;2.60;1.23;;;31.20;21.50;;;;;;2257909;40;20417;-65
2023/07/19 02:20:10;0.00;0.00;0.62;0.00;0.00;0.62;1.90;1.30;;;31.20;21.60;;;;;;2252133;61;20430;-65
2023/07/19 02:22:54;0.00;0.00;0.62;0.00;0.00;0.62;2.10;1.40;;;31.20;21.60;;;;;;2249239;61;20366;-65
2023/07/19 02:25:41;0.00;0.00;0.62;0.00;0.00;0.62;2.20;1.40;;;31.20;21.50;;;;;;2252624;61;20390;-65
2023/07/19 02:28:25;0.00;0.00;0.62;0.00;0.00;0.62;2.03;1.47;;;31.20;21.50;;;;;;2252679;61;20481;-65
2023/07/19 02:31:12;0.00;0.00;0.62;0.00;0.00;0.62;1.67;1.20;;;31.20;21.60;;;;;;2249842;61;20945;-64
2023/07/19 02:33:56;0.00;0.00;0.62;0.00;0.00;0.62;2.10;1.30;;;31.20;21.60;;;;;;2252490;61;20451;-65
2023/07/19 02:36:41;0.00;0.00;0.62;0.00;0.00;0.62;2.40;1.37;;;31.20;21.60;;;;;;2252592;61;20382;-65
2023/07/19 02:39:27;0.00;0.00;0.62;0.00;0.00;0.62;1.80;1.30;;;31.20;21.60;;;;;;2252356;61;20406;-65
2023/07/19 02:42:12;0.00;0.00;0.62;0.00;0.00;0.62;2.20;1.40;;;31.20;21.60;;;;;;2249177;61;20417;-65
2023/07/19 02:44:57;0.00;0.00;0.62;0.00;0.00;0.62;2.60;1.43;;;31.20;21.60;;;;;;2252767;61;20367;-65
2023/07/19 02:47:43;0.00;0.00;0.62;0.00;0.00;0.62;2.00;1.20;;;31.20;21.60;;;;;;2252568;61;20467;-66
2023/07/19 02:50:28;0.00;0.00;0.62;0.00;0.00;0.62;2.30;1.40;;;31.20;21.60;;;;;;2249107;61;20406;-65
2023/07/19 02:53:13;0.00;0.00;0.62;0.00;0.00;0.62;2.40;1.57;;;31.20;21.60;;;;;;2249476;61;20402;-65
2023/07/19 02:55:58;0.00;0.00;0.62;0.00;0.00;0.62;1.93;1.23;;;31.10;21.60;;;;;;2252381;61;20351;-65
2023/07/19 02:58:43;0.00;0.00;0.62;0.00;0.00;0.62;2.10;1.40;;;31.20;21.70;;;;;;2249260;61;20379;-64
2023/07/19 03:01:28;0.00;0.00;0.62;0.00;0.00;0.62;2.30;1.40;;;31.20;21.70;;;;;;2252622;61;20425;-65
2023/07/19 03:04:13;0.00;0.00;0.62;0.00;0.00;0.62;2.13;1.93;;;31.10;21.60;;;;;;2252285;61;20394;-65
2023/07/19 03:06:58;0.00;0.00;0.62;0.00;0.00;0.62;2.03;1.30;;;31.20;21.70;;;;;;2252394;61;20828;-65
2023/07/19 03:09:43;0.00;0.00;0.62;0.00;0.00;0.62;1.83;1.47;;;31.20;21.70;;;;;;2249013;61;20402;-66
2023/07/19 03:12:28;0.00;0.00;0.62;0.00;0.00;0.62;2.37;1.50;;;31.20;21.70;;;;;;2249122;61;20768;-65
2023/07/19 03:15:14;0.00;0.00;0.62;0.00;0.00;0.62;2.10;1.40;;;31.10;21.70;;;;;;2249504;61;20829;-68
2023/07/19 03:17:58;0.00;0.00;0.62;0.00;0.00;0.62;2.00;1.37;;;31.10;21.60;;;;;;2249004;61;20964;-68
2023/07/19 03:20:45;0.00;0.00;0.62;0.00;0.00;0.62;2.33;1.30;;;31.10;21.70;;;;;;2492059;53;20365;-65
2023/07/19 03:23:30;0.00;0.00;0.62;0.00;0.00;0.62;2.30;1.60;;;31.10;21.70;;;;;;2256541;61;20450;-65
2023/07/19 03:26:15;0.00;0.00;0.62;0.00;0.00;0.62;1.80;1.50;;;31.10;21.70;;;;;;2252926;61;20417;-66
2023/07/19 03:28:59;0.00;0.00;0.62;0.00;0.00;0.62;1.80;1.47;;;31.10;21.70;;;;;;2255872;61;20470;-65
2023/07/19 03:31:44;0.00;0.00;0.62;0.00;0.00;0.62;2.07;1.43;;;31.10;21.70;;;;;;2256703;61;20779;-65
2023/07/19 03:34:28;0.00;0.00;0.62;0.00;0.00;0.62;2.53;1.33;;;31.10;21.70;;;;;;2256285;61;20393;-65
2023/07/19 03:37:15;0.00;0.00;0.62;0.00;0.00;0.62;2.30;1.67;;;31.10;21.70;;;;;;2256356;61;20864;-66
2023/07/19 03:40:00;0.00;0.00;0.62;0.00;0.00;0.62;2.00;1.33;;;31.10;21.70;;;;;;2253030;61;20986;-65
2023/07/19 03:42:45;0.00;0.00;0.62;0.00;0.00;0.62;2.27;1.57;;;31.00;21.70;;;;;;2250508;61;20370;-65
2023/07/19 03:45:30;0.00;0.00;0.62;0.00;0.00;0.62;2.03;1.60;;;31.10;21.70;;;;;;2256397;61;20790;-65
2023/07/19 03:48:15;0.00;0.00;0.62;0.00;0.00;0.62;2.50;1.83;;;31.10;21.70;;;;;;2255889;61;20429;-64
2023/07/19 03:51:01;0.00;0.00;0.62;0.00;0.00;0.62;3.10;1.70;;;31.00;21.70;;;;;;2253166;61;20393;-65
2023/07/19 03:53:48;0.00;0.00;0.62;0.00;0.00;0.62;2.10;1.70;;;31.00;21.70;;;;;;2253166;61;20785;-71
2023/07/19 03:56:32;0.00;0.00;0.62;0.00;0.00;0.62;2.53;1.80;;;31.00;21.70;;;;;;2252889;61;20366;-65
2023/07/19 03:59:17;0.00;0.00;0.62;0.00;0.00;0.62;1.83;1.50;;;31.00;21.80;;;;;;2252977;61;20381;-65
2023/07/19 04:02:01;0.00;0.00;0.62;0.00;0.00;0.62;2.20;1.40;;;31.00;21.80;;;;;;2256309;61;20767;-64
2023/07/19 04:04:46;0.00;0.00;0.62;0.00;0.00;0.62;2.00;1.23;;;31.00;21.80;;;;;;2253014;61;20366;-65
2023/07/19 04:07:31;0.00;0.00;0.62;0.00;0.00;0.62;1.83;1.50;;;31.00;21.80;;;;;;2256299;61;20417;-65
2023/07/19 04:10:17;0.00;0.00;0.62;0.00;0.00;0.62;1.97;1.43;;;31.00;21.80;;;;;;2256035;61;20450;-65
2023/07/19 04:13:02;0.00;0.00;0.62;0.00;0.00;0.62;2.30;1.60;;;31.00;21.80;;;;;;2256517;61;20420;-71
2023/07/19 04:15:46;0.00;0.00;0.62;0.00;0.00;0.62;2.10;1.60;;;31.00;21.80;;;;;;2255885;61;20906;-64
2023/07/19 04:18:31;0.00;0.00;0.62;0.00;0.00;0.62;1.70;1.20;;;31.00;21.80;;;;;;2251174;61;20477;-64
2023/07/19 04:21:16;0.00;0.00;0.62;0.00;0.00;0.62;1.70;1.33;;;31.00;21.80;;;;;;2252297;61;20433;-67
2023/07/19 04:24:00;0.00;0.00;0.62;0.00;0.00;0.62;2.97;1.60;;;31.00;21.90;;;;;;2252073;61;20406;-65
2023/07/19 04:26:48;0.00;0.00;0.62;0.00;0.00;0.62;2.27;1.50;;;30.90;21.80;;;;;;2248988;61;21033;-65
2023/07/19 04:29:33;0.00;0.00;0.62;0.00;0.00;0.62;2.10;1.40;;;31.00;21.90;;;;;;2249000;61;20421;-66
2023/07/19 04:32:18;0.00;0.00;0.62;0.00;0.00;0.62;1.83;1.27;;;31.00;21.90;;;;;;2246282;61;20398;-65
2023/07/19 04:35:03;0.00;0.00;0.62;0.00;0.00;0.62;1.80;1.33;;;31.00;21.80;;;;;;2248973;61;20883;-65
2023/07/19 04:37:49;0.00;0.00;0.62;0.00;0.00;0.62;2.30;1.50;;;30.90;21.80;;;;;;2252131;61;20941;-64
2023/07/19 04:40:34;0.00;0.00;0.62;0.00;0.00;0.62;3.87;1.67;;;30.90;21.80;;;;;;2248613;61;20370;-67
2023/07/19 04:43:21;0.00;0.00;0.62;0.00;0.00;0.62;2.83;1.70;;;30.90;21.80;;;;;;2249014;61;20430;-65
2023/07/19 04:46:11;0.00;0.00;0.62;0.00;0.00;0.62;2.63;1.67;;;30.90;21.80;;;;;;2248853;61;20366;-65
2023/07/19 04:48:56;0.00;0.00;0.62;0.00;0.00;0.62;3.20;1.70;;;30.90;21.80;;;;;;2252146;61;20383;-65
2023/07/19 04:51:45;0.00;0.00;0.62;0.00;0.00;0.62;2.63;1.50;;;30.90;21.90;;;;;;2249166;61;20596;-65
2023/07/19 04:54:30;0.00;0.00;0.62;0.00;0.00;0.62;4.57;1.70;;;30.90;21.90;;;;;;2248980;61;20371;-65
2023/07/19 04:57:15;0.00;0.00;0.62;0.00;0.00;0.62;1.90;1.40;;;30.90;21.90;;;;;;2249103;61;20526;-66
2023/07/19 05:00:05;0.00;0.00;0.62;0.00;0.00;0.62;2.63;1.53;;;30.90;21.90;;;;;;2248549;61;20414;-65
2023/07/19 05:02:50;0.00;0.00;0.62;0.00;0.00;0.62;2.57;1.83;;;30.90;21.90;;;;;;2248564;61;20371;-64
2023/07/19 05:05:34;0.00;0.00;0.62;0.00;0.00;0.62;2.00;1.50;;;30.90;21.90;;;;;;2249128;61;20406;-65
2023/07/19 05:08:19;0.00;0.00;0.62;0.00;0.00;0.62;3.47;1.47;;;30.90;21.90;;;;;;2248765;61;20791;-65
2023/07/19 05:11:04;0.00;0.00;0.62;0.00;0.00;0.62;2.70;1.57;;;30.90;21.90;;;;;;2252040;61;20394;-65
2023/07/19 05:13:50;0.00;0.00;0.62;0.00;0.00;0.62;2.43;1.47;;;30.90;21.90;;;;;;2249111;61;20366;-65
2023/07/19 05:16:39;0.00;0.00;0.62;0.00;0.00;0.62;3.93;2.10;;;30.90;21.90;;;;;;2260548;55;20406;31
2023/07/19 05:19:25;0.00;0.00;0.62;0.00;0.00;0.62;2.23;1.60;;;30.80;21.90;;;;;;2248359;61;20822;-65
2023/07/19 05:22:11;0.00;0.00;0.62;0.00;0.00;0.62;2.90;2.20;;;30.90;22.00;;;;;;2245232;61;20812;-64
2023/07/19 05:24:55;0.00;0.00;0.62;0.00;0.00;0.62;2.30;1.97;;;30.80;21.90;;;;;;2244851;61;20373;-65
2023/07/19 05:27:40;0.00;0.00;0.62;0.00;0.00;0.62;2.93;2.37;;;30.90;22.00;;;;;;2248364;61;20436;-67
2023/07/19 05:30:24;0.00;0.00;0.62;0.00;0.00;0.62;3.27;1.90;;;30.90;22.00;;;;;;2247815;61;20398;-65
2023/07/19 05:33:10;0.00;0.00;0.62;0.00;0.00;0.62;3.20;1.83;;;30.90;22.00;;;;;;2249760;61;20828;-65
2023/07/19 05:35:55;0.00;0.00;0.62;0.00;0.00;0.62;2.90;1.80;;;30.80;22.00;;;;;;2250238;61;20368;-65
2023/07/19 05:38:39;0.00;0.00;0.62;0.00;0.00;0.62;2.70;1.80;;;30.80;22.00;;;;;;2250044;61;20403;-65
2023/07/19 05:41:24;0.00;0.00;0.62;0.00;0.00;0.62;2.90;2.07;;;30.80;22.00;;;;;;2250636;61;20460;-65
2023/07/19 05:44:09;0.00;0.00;0.62;0.00;0.00;0.62;2.67;1.87;;;30.80;22.00;;;;;;2250406;61;20971;-65
2023/07/19 05:46:54;0.00;0.00;0.62;0.00;0.00;0.62;2.47;1.83;;;30.80;22.00;;;;;;2250078;61;20542;-66
2023/07/19 05:49:40;0.00;0.00;0.62;0.00;0.00;0.62;2.87;2.17;;;30.80;22.00;;;;;;2250116;61;20904;-65
2023/07/19 05:52:27;0.00;0.00;0.62;0.00;0.00;0.62;2.20;1.80;;;30.80;22.00;;;;;;2250347;61;20399;-65
2023/07/19 05:55:12;0.00;0.00;0.62;0.00;0.00;0.62;2.97;2.20;;;30.80;22.00;;;;;;2250010;61;20363;-65
2023/07/19 05:57:57;0.00;0.00;0.62;0.00;0.00;0.62;3.53;2.57;;;30.80;22.50;;;;;;2250300;61;20395;-65
2023/07/19 06:00:41;0.00;0.00;0.62;0.00;0.00;0.62;3.00;2.27;;;30.80;22.00;;;;;;2250188;61;20395;-65
2023/07/19 06:03:26;0.00;0.00;0.62;0.00;0.00;0.62;3.03;1.90;;;30.80;22.00;;;;;;2250269;61;20437;-65
2023/07/19 06:06:12;0.00;0.00;0.62;0.00;0.00;0.62;3.50;2.43;;;30.80;22.00;;;;;;2250540;61;20452;-65
2023/07/19 06:08:57;0.00;0.00;0.62;0.00;0.00;0.62;2.23;1.57;;;30.80;22.10;;;;;;2246635;61;20831;-65
2023/07/19 06:11:42;0.00;0.00;0.62;0.00;0.00;0.62;3.40;2.20;;;30.80;22.10;;;;;;2250188;61;20754;-65
2023/07/19 06:14:27;0.00;0.00;0.62;0.00;0.00;0.62;2.50;2.10;;;30.80;22.10;;;;;;2251236;61;20590;-65
2023/07/19 06:17:11;0.00;0.00;0.62;0.00;0.00;0.62;2.67;2.10;;;30.80;22.10;;;;;;2250804;61;20399;-65
2023/07/19 06:19:56;0.00;0.00;0.62;0.00;0.00;0.62;6.03;2.37;;;30.80;22.10;;;;;;2250227;61;20375;-65
2023/07/19 06:22:42;0.00;0.00;0.62;0.00;0.00;0.62;2.33;1.80;;;30.80;22.10;;;;;;2247596;61;20427;-65
2023/07/19 06:25:27;0.00;0.00;0.62;0.00;0.00;0.62;3.33;2.43;;;30.80;22.10;;;;;;2250961;61;20368;-65
2023/07/19 06:28:12;0.00;0.00;0.62;0.00;0.00;0.62;3.10;2.40;;;30.80;22.10;;;;;;2250723;61;20958;-65
2023/07/19 06:30:59;0.00;0.00;0.62;0.00;0.00;0.62;2.40;2.00;;;30.80;22.10;;;;;;2250521;61;20903;-65
2023/07/19 06:33:44;0.00;0.00;0.62;0.00;0.00;0.62;2.50;2.10;;;30.80;22.10;;;;;;2251382;61;20368;-65
2023/07/19 06:36:28;0.00;0.00;0.62;0.00;0.00;0.62;3.83;2.20;;;30.80;22.10;;;;;;2250488;61;20375;-65
2023/07/19 06:39:14;0.00;0.00;0.62;0.00;0.00;0.62;2.17;1.90;;;30.80;22.70;;;;;;2250188;61;20427;-65
2023/07/19 06:41:59;0.00;0.00;0.62;0.00;0.00;0.62;3.33;1.80;;;30.80;22.10;;;;;;2251044;61;20368;-65
2023/07/19 06:44:44;0.00;0.00;0.62;0.00;0.00;0.62;2.70;2.20;;;30.80;22.10;;;;;;2251131;61;20375;-65
2023/07/19 06:47:29;0.00;0.00;0.62;0.00;0.00;0.62;2.20;1.77;;;30.80;22.10;;;;;;2251104;61;20563;-65
2023/07/19 06:50:14;0.00;0.00;0.62;0.00;0.00;0.62;3.73;1.80;;;30.80;22.10;;;;;;2250702;61;20664;-65
2023/07/19 06:53:01;0.00;0.00;0.62;0.00;0.00;0.62;4.10;2.20;;;30.80;22.10;;;;;;2250828;61;20460;-65
2023/07/19 06:55:47;0.00;0.00;0.62;0.00;0.00;0.62;2.33;1.93;;;30.80;22.10;;;;;;2251238;61;20410;-65
2023/07/19 06:58:32;0.00;0.00;0.62;0.00;0.00;0.62;3.80;2.10;;;30.80;22.20;;;;;;2250830;61;20450;-65
2023/07/19 07:01:17;0.00;0.00;0.62;0.00;0.00;0.62;2.50;2.00;;;30.80;22.20;;;;;;2250926;61;20368;-65
2023/07/19 07:04:02;0.00;0.00;0.62;0.00;0.00;0.62;2.20;1.70;;;30.80;22.20;;;;;;2250841;61;20367;-65
2023/07/19 07:06:47;0.00;0.00;0.62;0.00;0.00;0.62;2.57;1.93;;;30.80;22.10;;;;;;2250934;61;21030;-65
2023/07/19 07:09:32;0.00;0.00;0.62;0.00;0.00;0.62;2.10;1.70;;;30.80;22.20;;;;;;2250731;61;20392;-65
2023/07/19 07:12:18;0.00;0.00;0.62;0.00;0.00;0.62;2.17;1.93;;;30.80;22.20;;;;;;2251440;61;20391;-65
2023/07/19 07:15:04;0.00;0.00;0.62;0.00;0.00;0.62;2.07;1.67;;;30.80;22.20;;;;;;2250746;61;20456;-65
2023/07/19 07:17:48;0.00;0.00;0.62;0.00;0.00;0.62;2.67;2.03;;;30.80;22.20;;;;;;2251069;61;20383;-65
2023/07/19 07:20:35;0.00;0.00;0.62;0.00;0.00;0.62;2.53;2.00;;;30.80;22.20;;;;;;2713800;46;20400;-65
2023/07/19 07:23:19;0.00;0.00;0.62;0.00;0.00;0.62;4.13;2.00;;;30.80;22.20;;;;;;2246893;61;20388;-65
2023/07/19 07:26:04;0.00;0.00;0.62;0.00;0.00;0.62;4.97;2.20;;;30.80;22.20;;;;;;2247075;61;20445;-65
2023/07/19 07:32:20;0.00;0.00;0.62;0.00;0.00;0.62;2.73;1.87;;;30.80;22.20;;;;;;2260810;61;20466;-66
2023/07/19 07:35:06;0.00;0.00;0.62;0.00;0.00;0.62;2.40;1.70;;;30.80;22.20;;;;;;2259473;61;20473;-66
2023/07/19 07:37:51;0.00;0.00;0.62;0.00;0.00;0.62;2.70;2.10;;;30.80;22.20;;;;;;2351941;40;20441;-65
2023/07/19 07:40:36;0.00;0.00;0.62;0.00;0.00;0.62;2.30;1.77;;;30.80;22.20;;;;;;2255368;61;20366;-65
2023/07/19 07:43:21;0.00;0.00;0.62;0.00;0.00;0.62;2.03;1.60;;;30.80;22.20;;;;;;2255232;61;20381;-65
2023/07/19 07:46:06;0.00;0.00;0.62;0.00;0.00;0.62;2.90;1.93;;;30.80;22.20;;;;;;2255239;61;20370;-65
2023/07/19 07:48:52;0.00;0.00;0.62;0.00;0.00;0.62;2.57;2.00;;;30.80;22.20;;;;;;2250927;61;20451;-65
2023/07/19 07:51:36;0.00;0.00;0.62;0.00;0.00;0.62;2.23;1.77;;;30.80;22.30;;;;;;2251170;61;20598;-65
2023/07/19 07:54:21;0.00;0.00;0.62;0.00;0.00;0.62;4.90;2.27;;;30.80;22.20;;;;;;2250554;61;20499;-65
2023/07/19 07:57:07;0.00;0.00;0.62;0.00;0.00;0.62;3.73;1.70;;;30.80;22.20;;;;;;2250962;61;20475;-65
2023/07/19 07:59:52;0.00;0.00;0.62;0.00;0.00;0.62;3.37;2.00;;;30.80;22.20;;;;;;2249778;61;20372;-63
2023/07/19 08:02:37;0.00;0.00;0.62;0.00;0.00;0.62;3.53;2.60;;;30.90;22.30;;;;;;2252009;61;20364;-65
2023/07/19 08:05:23;0.00;0.00;0.62;0.00;0.00;0.62;3.10;2.43;;;30.80;22.10;;;;;;2249428;61;20407;-64
2023/07/19 08:08:08;0.00;0.00;0.62;0.00;0.00;0.62;1.87;1.50;;;30.80;22.00;;;;;;2250307;61;20387;-64
2023/07/19 08:10:53;0.00;0.00;0.62;0.00;0.00;0.62;5.37;2.60;;;30.80;22.00;;;;;;2250053;61;20363;-66
2023/07/19 08:13:38;0.00;0.00;0.62;0.00;0.00;0.62;3.10;1.80;;;30.80;22.00;;;;;;2249674;61;20364;-66
2023/07/19 08:16:23;0.00;0.00;0.62;0.00;0.00;0.62;3.00;1.90;;;30.70;22.00;;;;;;2248696;61;20363;-69
2023/07/19 08:19:08;0.00;0.00;0.62;0.00;0.00;0.62;4.43;2.67;;;30.60;22.10;;;;;;2247826;61;20956;-67
2023/07/19 08:22:01;0.00;0.00;0.62;0.00;0.00;0.62;3.93;2.50;;;30.60;22.10;;;;;;2248441;61;20915;-68
2023/07/19 08:24:46;0.00;0.00;0.62;0.00;0.00;0.62;3.80;2.07;;;30.50;22.20;;;;;;2248411;61;20367;-68
2023/07/19 08:27:35;0.00;0.00;0.62;0.00;0.00;0.62;4.70;2.47;;;30.40;22.20;;;;;;2446856;40;20389;31
2023/07/19 08:30:20;0.00;0.00;0.62;0.00;0.00;0.62;4.40;2.93;;;30.40;22.20;;;;;;2241883;61;20469;-67
2023/07/19 08:33:08;0.00;0.00;0.62;0.00;0.00;0.62;4.47;2.50;;;30.30;22.30;;;;;;2240671;61;20370;-67
2023/07/19 08:35:53;0.00;0.00;0.62;0.00;0.00;0.62;3.07;2.00;;;30.30;22.30;;;;;;2237203;61;20954;-67
2023/07/19 08:38:39;0.00;0.00;0.62;0.00;0.00;0.62;4.10;2.50;;;30.20;22.40;;;;;;2240181;61;20524;-68
2023/07/19 08:41:29;0.00;0.00;0.62;0.00;0.00;0.62;2.70;1.93;;;30.20;22.40;;;;;;2240545;61;20454;-67
2023/07/19 08:44:14;0.00;0.00;0.62;0.00;0.00;0.62;2.40;2.13;;;30.20;22.50;;;;;;2237166;61;20373;-67
2023/07/19 08:46:59;0.00;0.00;0.62;0.00;0.00;0.62;3.10;2.20;;;30.20;23.10;;;;;;2240274;61;20386;-69
2023/07/19 08:49:44;0.00;0.00;0.62;0.00;0.00;0.62;3.30;2.20;;;30.10;22.60;;;;;;2240114;61;20365;-68
2023/07/19 08:52:29;0.00;0.00;0.62;0.00;0.00;0.62;3.37;2.47;;;30.10;22.70;;;;;;2240103;61;20839;-68
2023/07/19 08:55:16;0.00;0.00;0.62;0.00;0.00;0.62;3.43;2.03;;;30.10;22.70;;;;;;2240388;61;20365;-68
2023/07/19 08:58:01;0.00;0.00;0.62;0.00;0.00;0.62;4.27;2.00;;;30.10;22.80;;;;;;2236805;61;20401;-70
2023/07/19 09:00:47;0.00;0.00;0.62;0.00;0.00;0.62;4.40;2.23;;;30.10;22.90;;;;;;2239962;61;20413;-68
2023/07/19 09:03:32;0.00;0.00;0.62;0.00;0.00;0.62;5.00;2.30;;;30.00;22.80;;;;;;2240095;61;20786;-70
2023/07/19 09:06:24;0.00;0.00;0.62;0.00;0.00;0.62;4.27;2.77;;;30.00;22.90;;;;;;2239817;61;20928;-68
2023/07/19 09:09:10;0.00;0.00;0.62;0.00;0.00;0.62;3.53;2.53;;;30.00;23.00;;;;;;2240007;61;20362;-68
2023/07/19 09:11:56;0.00;0.00;0.62;0.00;0.00;0.62;3.50;2.13;;;30.00;23.10;;;;;;2239769;61;20549;-69
2023/07/19 09:14:40;0.00;0.00;0.62;0.00;0.00;0.62;3.63;2.03;;;30.00;23.30;;;;;;2240193;61;20373;-69
2023/07/19 09:17:29;0.00;0.00;0.62;0.00;0.00;0.62;4.10;1.80;;;30.00;23.20;;;;;;2239837;61;20430;-69
2023/07/19 09:20:15;0.00;0.00;0.62;0.00;0.00;0.62;5.00;2.53;;;30.00;23.30;;;;;;2239783;61;20373;-68
2023/07/19 09:23:05;0.00;0.00;0.62;0.00;0.00;0.62;3.13;2.00;;;30.00;23.30;;;;;;2240016;61;20418;-68
2023/07/19 09:25:55;0.00;0.00;0.62;0.00;0.00;0.62;2.80;2.10;;;30.00;23.30;;;;;;2240297;61;20941;-69
2023/07/19 09:28:41;0.00;0.00;0.62;0.00;0.00;0.62;4.23;2.40;;;30.00;23.40;;;;;;2344284;40;20984;-68
2023/07/19 09:31:26;0.00;0.00;0.62;0.00;0.00;0.62;4.70;2.23;;;30.00;23.30;;;;;;2252957;61;20365;-67
2023/07/19 09:34:11;0.00;0.00;0.62;0.00;0.00;0.62;3.03;1.80;;;30.00;23.20;;;;;;2256344;61;20361;-69
2023/07/19 09:36:55;0.00;0.00;0.62;0.00;0.00;0.62;3.80;2.10;;;29.90;23.30;;;;;;2255890;61;20464;-68
2023/07/19 09:39:42;0.00;0.00;0.62;0.00;0.00;0.62;2.53;2.03;;;29.90;23.30;;;;;;2256115;61;20417;-69
2023/07/19 09:42:29;0.00;0.00;0.62;0.00;0.00;0.62;6.30;2.10;;;29.90;23.30;;;;;;2256452;61;20889;-69
2023/07/19 09:45:16;0.00;0.00;0.62;0.00;0.00;0.62;2.37;1.77;;;29.90;23.30;;;;;;2256028;61;20362;-69
2023/07/19 09:48:03;0.00;0.00;0.62;0.00;0.00;0.62;2.33;1.80;;;29.90;23.40;;;;;;2256725;61;20382;-69
2023/07/19 09:50:49;0.00;0.00;0.62;0.00;0.00;0.62;3.33;2.10;;;29.90;23.40;;;;;;2253518;61;20409;-69
2023/07/19 09:53:38;0.00;0.00;0.62;0.00;0.00;0.62;4.20;1.80;;;29.90;23.30;;;;;;2253739;61;20492;-69
2023/07/19 09:56:23;0.00;0.00;0.62;0.00;0.00;0.62;2.23;1.60;;;29.90;23.30;;;;;;2253953;61;20437;-69
2023/07/19 09:59:13;0.00;0.00;0.62;0.00;0.00;0.62;2.87;1.60;;;29.90;23.30;;;;;;2256468;61;20442;-69
2023/07/19 10:02:00;0.00;0.00;0.62;0.00;0.00;0.62;7.13;1.70;;;29.90;23.20;;;;;;2253754;61;20370;-69
2023/07/19 10:04:48;0.00;0.00;0.62;0.00;0.00;0.62;2.73;1.60;;;29.80;23.10;;;;;;2256733;61;20520;-69
2023/07/19 10:07:34;0.00;0.00;0.62;0.00;0.00;0.62;2.20;1.53;;;29.90;23.10;;;;;;2256743;61;20389;-69
2023/07/19 10:10:20;0.00;0.00;0.62;0.00;0.00;0.62;2.63;1.70;;;29.90;23.00;;;;;;2256869;61;20362;-69
2023/07/19 10:13:06;0.00;0.00;0.62;0.00;0.00;0.62;3.00;1.90;;;29.90;22.90;;;;;;2256303;61;20412;-69
2023/07/19 10:15:53;0.00;0.00;0.62;0.00;0.00;0.62;2.97;1.90;;;29.90;22.90;;;;;;2253766;61;20412;-69
2023/07/19 10:18:40;0.00;0.00;0.62;0.00;0.00;0.62;3.93;1.93;;;29.80;22.80;;;;;;2256647;61;20385;-69
2023/07/19 10:21:30;0.00;0.00;0.62;0.00;0.00;0.62;2.03;1.50;;;29.80;22.80;;;;;;2256695;61;20405;-69
2023/07/19 10:24:17;0.00;0.00;0.62;0.00;0.00;0.62;2.50;1.73;;;29.80;22.90;;;;;;2253601;61;20474;-68
2023/07/19 10:27:04;0.00;0.00;0.62;0.00;0.00;0.62;5.40;1.80;;;29.80;23.00;;;;;;2256749;61;20408;-69
2023/07/19 10:29:49;0.00;0.00;0.62;0.00;0.00;0.62;2.60;1.60;;;29.80;23.00;;;;;;2256529;61;20409;-69
2023/07/19 10:32:34;0.00;0.00;0.62;0.00;0.00;0.62;3.20;2.27;;;29.80;23.00;;;;;;2256987;61;20365;-67
2023/07/19 10:35:32;0.00;0.00;0.62;0.00;0.00;0.62;1.97;1.57;;;29.80;23.00;;;;;;2256585;61;20365;-67
2023/07/19 10:38:20;0.00;0.00;0.62;0.00;0.00;0.62;2.63;1.87;;;29.80;23.10;;;;;;2256625;61;20390;-67
2023/07/19 10:41:07;0.00;0.00;0.62;0.00;0.00;0.62;3.27;1.80;;;29.80;23.10;;;;;;2256653;61;20412;-67
2023/07/19 10:43:57;0.00;0.00;0.62;0.00;0.00;0.62;2.87;1.97;;;29.80;23.10;;;;;;2252450;61;20437;-64
2023/07/19 10:46:43;0.00;0.00;0.62;0.00;0.00;0.62;2.77;1.80;;;29.80;23.10;;;;;;2256821;61;20445;-65
2023/07/19 10:49:28;0.00;0.00;0.62;0.00;0.00;0.62;3.07;1.70;;;29.80;23.10;;;;;;2256536;61;20370;-64
2023/07/19 10:52:20;0.00;0.00;0.62;0.00;0.00;0.62;3.03;1.80;;;29.80;23.10;;;;;;2256835;61;20790;-63
2023/07/19 10:55:06;0.00;0.00;0.62;0.00;0.00;0.62;4.47;2.00;;;29.80;23.20;;;;;;2255830;61;20428;-65
2023/07/19 10:57:51;0.00;0.00;0.62;0.00;0.00;0.62;2.13;1.70;;;29.70;23.10;;;;;;2256143;61;20937;-64